sensor_id;sensor_type;location;lat;lon;timestamp;P1;P2;P0
13030;PMS7003;6582;54.644;9.760;2022-11-14T00:00:02;82.7;70.5;
13030;PMS7003;6582;54.644;9.760;2022-11-14T00:05:02;83.2;70.2;
13030;PMS7003;6582;54.644;9.760;2022-11-14T00:10:02;85.5;72.6;
13030;PMS7003;6582;54.644;9.760;2022-11-14T00:15:01;85.8;72.7;
13030;PMS7003;6582;54.644;9.760;2022-11-14T00:20:02;86.4;73.2;
13030;PMS7003;6582;54.644;9.760;2022-11-14T00:25:02;86.1;72.6;
13030;PMS7003;6582;54.644;9.760;2022-11-14T00:30:01;83.6;70.8;
13030;PMS7003;6582;54.644;9.760;2022-11-14T00:35:01;82.6;69.2;
13030;PMS7003;6582;54.644;9.760;2022-11-14T00:40:07;83.0;69.5;
13030;PMS7003;6582;54.644;9.760;2022-11-14T00:45:02;81.9;67.8;
13030;PMS7003;6582;54.644;9.760;2022-11-14T00:55:02;82.0;67.8;
13030;PMS7003;6582;54.644;9.760;2022-11-14T01:00:03;83.0;68.6;
13030;PMS7003;6582;54.644;9.760;2022-11-14T01:05:01;84.1;70.6;
13030;PMS7003;6582;54.644;9.760;2022-11-14T01:10:04;84.5;71.4;
13030;PMS7003;6582;54.644;9.760;2022-11-14T01:15:01;86.2;73.6;
13030;PMS7003;6582;54.644;9.760;2022-11-14T01:20:02;86.8;74.6;
13030;PMS7003;6582;54.644;9.760;2022-11-14T01:25:02;88.3;76.3;
13030;PMS7003;6582;54.644;9.760;2022-11-14T01:30:07;88.6;76.4;
13030;PMS7003;6582;54.644;9.760;2022-11-14T01:35:02;89.1;76.6;
13030;PMS7003;6582;54.644;9.760;2022-11-14T01:45:40;88.4;76.3;
13030;PMS7003;6582;54.644;9.760;2022-11-14T02:05:03;92.6;84.4;
13030;PMS7003;6582;54.644;9.760;2022-11-14T02:10:04;90.4;80.8;
13030;PMS7003;6582;54.644;9.760;2022-11-14T02:15:02;89.6;78.9;
13030;PMS7003;6582;54.644;9.760;2022-11-14T02:35:01;89.2;76.6;
13030;PMS7003;6582;54.644;9.760;2022-11-14T02:40:01;88.6;76.1;
13030;PMS7003;6582;54.644;9.760;2022-11-14T02:45:01;91.8;79.6;
13030;PMS7003;6582;54.644;9.760;2022-11-14T02:50:01;90.3;77.5;
13030;PMS7003;6582;54.644;9.760;2022-11-14T02:55:02;90.2;78.1;
13030;PMS7003;6582;54.644;9.760;2022-11-14T03:00:02;91.1;79.5;
13030;PMS7003;6582;54.644;9.760;2022-11-14T03:05:01;92.0;80.2;
13030;PMS7003;6582;54.644;9.760;2022-11-14T03:10:01;90.9;79.7;
13030;PMS7003;6582;54.644;9.760;2022-11-14T03:15:02;92.8;82.9;
13030;PMS7003;6582;54.644;9.760;2022-11-14T03:20:02;93.6;84.2;
13030;PMS7003;6582;54.644;9.760;2022-11-14T03:25:01;94.0;85.2;
13030;PMS7003;6582;54.644;9.760;2022-11-14T03:30:08;93.5;85.7;
13030;PMS7003;6582;54.644;9.760;2022-11-14T03:35:01;93.9;85.9;
13030;PMS7003;6582;54.644;9.760;2022-11-14T03:40:02;93.0;84.9;
13030;PMS7003;6582;54.644;9.760;2022-11-14T03:45:02;92.6;84.0;
13030;PMS7003;6582;54.644;9.760;2022-11-14T03:50:01;91.6;82.9;
13030;PMS7003;6582;54.644;9.760;2022-11-14T03:55:08;92.5;84.3;
13030;PMS7003;6582;54.644;9.760;2022-11-14T04:00:01;92.2;84.4;
13030;PMS7003;6582;54.644;9.760;2022-11-14T04:05:01;93.4;85.8;
13030;PMS7003;6582;54.644;9.760;2022-11-14T04:10:01;93.6;86.0;
13030;PMS7003;6582;54.644;9.760;2022-11-14T04:15:02;94.1;86.8;
13030;PMS7003;6582;54.644;9.760;2022-11-14T04:20:01;93.8;85.7;
13030;PMS7003;6582;54.644;9.760;2022-11-14T04:30:02;93.5;84.0;
13030;PMS7003;6582;54.644;9.760;2022-11-14T04:35:01;93.0;83.4;
13030;PMS7003;6582;54.644;9.760;2022-11-14T04:40:01;93.1;82.3;
13030;PMS7003;6582;54.644;9.760;2022-11-14T04:45:06;93.1;82.7;
13030;PMS7003;6582;54.644;9.760;2022-11-14T04:50:07;93.6;83.6;
13030;PMS7003;6582;54.644;9.760;2022-11-14T04:55:01;93.8;84.3;
13030;PMS7003;6582;54.644;9.760;2022-11-14T05:00:02;94.5;85.2;
13030;PMS7003;6582;54.644;9.760;2022-11-14T05:05:01;94.9;87.0;
13030;PMS7003;6582;54.644;9.760;2022-11-14T05:10:01;95.0;87.6;
13030;PMS7003;6582;54.644;9.760;2022-11-14T05:15:01;94.7;87.8;
13030;PMS7003;6582;54.644;9.760;2022-11-14T05:20:01;94.4;87.7;
13030;PMS7003;6582;54.644;9.760;2022-11-14T05:25:01;95.7;89.3;
13030;PMS7003;6582;54.644;9.760;2022-11-14T05:30:01;95.7;89.1;
13030;PMS7003;6582;54.644;9.760;2022-11-14T05:35:01;95.9;88.8;
13030;PMS7003;6582;54.644;9.760;2022-11-14T05:40:02;96.0;89.0;
13030;PMS7003;6582;54.644;9.760;2022-11-14T05:45:01;96.4;89.4;
13030;PMS7003;6582;54.644;9.760;2022-11-14T05:50:02;95.5;87.9;
13030;PMS7003;6582;54.644;9.760;2022-11-14T05:55:01;94.9;86.8;
13030;PMS7003;6582;54.644;9.760;2022-11-14T06:00:02;95.1;87.1;
13030;PMS7003;6582;54.644;9.760;2022-11-14T06:05:01;94.8;86.6;
13030;PMS7003;6582;54.644;9.760;2022-11-14T06:10:02;95.5;86.4;
13030;PMS7003;6582;54.644;9.760;2022-11-14T06:15:02;95.2;86.5;
13030;PMS7003;6582;54.644;9.760;2022-11-14T06:20:01;95.8;87.3;
13030;PMS7003;6582;54.644;9.760;2022-11-14T06:25:07;95.1;85.6;
13030;PMS7003;6582;54.644;9.760;2022-11-14T06:30:01;95.2;85.4;
13030;PMS7003;6582;54.644;9.760;2022-11-14T06:35:02;94.1;84.6;
13030;PMS7003;6582;54.644;9.760;2022-11-14T06:40:02;94.6;84.9;
13030;PMS7003;6582;54.644;9.760;2022-11-14T06:45:01;94.1;84.0;
13030;PMS7003;6582;54.644;9.760;2022-11-14T06:50:03;94.6;85.0;
13030;PMS7003;6582;54.644;9.760;2022-11-14T06:55:01;93.6;83.7;
13030;PMS7003;6582;54.644;9.760;2022-11-14T07:00:06;94.5;84.9;
13030;PMS7003;6582;54.644;9.760;2022-11-14T07:05:03;93.6;84.0;
13030;PMS7003;6582;54.644;9.760;2022-11-14T07:10:01;94.2;84.6;
13030;PMS7003;6582;54.644;9.760;2022-11-14T07:15:07;94.0;83.7;
13030;PMS7003;6582;54.644;9.760;2022-11-14T07:20:01;95.8;86.3;
13030;PMS7003;6582;54.644;9.760;2022-11-14T07:25:01;94.9;85.4;
13030;PMS7003;6582;54.644;9.760;2022-11-14T07:30:01;94.8;85.4;
13030;PMS7003;6582;54.644;9.760;2022-11-14T07:35:03;94.9;85.7;
13030;PMS7003;6582;54.644;9.760;2022-11-14T07:40:01;95.0;86.8;
13030;PMS7003;6582;54.644;9.760;2022-11-14T07:45:01;93.6;84.8;
13030;PMS7003;6582;54.644;9.760;2022-11-14T07:55:01;93.3;84.4;
13030;PMS7003;6582;54.644;9.760;2022-11-14T08:00:01;92.3;83.1;
13030;PMS7003;6582;54.644;9.760;2022-11-14T08:05:01;94.7;86.4;
13030;PMS7003;6582;54.644;9.760;2022-11-14T08:10:01;96.5;89.0;
13030;PMS7003;6582;54.644;9.760;2022-11-14T08:15:01;97.4;89.9;
13030;PMS7003;6582;54.644;9.760;2022-11-14T08:20:01;98.6;91.6;
13030;PMS7003;6582;54.644;9.760;2022-11-14T08:25:01;99.7;92.7;
13030;PMS7003;6582;54.644;9.760;2022-11-14T08:30:01;96.6;88.8;
13030;PMS7003;6582;54.644;9.760;2022-11-14T08:35:01;95.0;86.1;
13030;PMS7003;6582;54.644;9.760;2022-11-14T08:40:02;94.4;85.8;
13030;PMS7003;6582;54.644;9.760;2022-11-14T08:45:01;93.9;85.8;
13030;PMS7003;6582;54.644;9.760;2022-11-14T08:50:01;98.6;91.6;
13030;PMS7003;6582;54.644;9.760;2022-11-14T08:55:01;99.6;93.8;
13030;PMS7003;6582;54.644;9.760;2022-11-14T09:00:01;100.3;95.2;
13030;PMS7003;6582;54.644;9.760;2022-11-14T09:05:01;100.4;95.2;
13030;PMS7003;6582;54.644;9.760;2022-11-14T09:10:03;100.7;95.2;
13030;PMS7003;6582;54.644;9.760;2022-11-14T09:15:01;96.0;89.7;
13030;PMS7003;6582;54.644;9.760;2022-11-14T09:25:01;96.3;88.5;
13030;PMS7003;6582;54.644;9.760;2022-11-14T09:30:01;96.4;88.4;
13030;PMS7003;6582;54.644;9.760;2022-11-14T09:35:02;96.1;87.4;
13030;PMS7003;6582;54.644;9.760;2022-11-14T09:40:01;96.2;87.6;
13030;PMS7003;6582;54.644;9.760;2022-11-14T09:45:02;96.3;87.7;
13030;PMS7003;6582;54.644;9.760;2022-11-14T09:50:04;96.5;88.2;
13030;PMS7003;6582;54.644;9.760;2022-11-14T09:55:13;96.8;88.2;
13030;PMS7003;6582;54.644;9.760;2022-11-14T10:00:01;97.6;90.0;
13030;PMS7003;6582;54.644;9.760;2022-11-14T10:05:15;98.0;90.2;
13030;PMS7003;6582;54.644;9.760;2022-11-14T10:25:06;96.8;91.8;
13030;PMS7003;6582;54.644;9.760;2022-11-14T10:30:08;96.8;91.4;
13030;PMS7003;6582;54.644;9.760;2022-11-14T10:35:14;97.3;90.7;
13030;PMS7003;6582;54.644;9.760;2022-11-14T10:55:05;96.0;88.6;
13030;PMS7003;6582;54.644;9.760;2022-11-14T11:00:04;95.6;87.3;
13030;PMS7003;6582;54.644;9.760;2022-11-14T11:05:04;95.2;86.9;
13030;PMS7003;6582;54.644;9.760;2022-11-14T11:10:02;96.0;88.3;
13030;PMS7003;6582;54.644;9.760;2022-11-14T11:35:02;99.4;96.2;
13030;PMS7003;6582;54.644;9.760;2022-11-14T11:45:03;96.9;91.5;
13030;PMS7003;6582;54.644;9.760;2022-11-14T11:50:02;96.2;89.8;
13030;PMS7003;6582;54.644;9.760;2022-11-14T12:15:07;98.4;95.2;
13030;PMS7003;6582;54.644;9.760;2022-11-14T12:20:04;98.0;91.7;
13030;PMS7003;6582;54.644;9.760;2022-11-14T12:25:06;97.1;90.6;
13030;PMS7003;6582;54.644;9.760;2022-11-14T12:30:03;96.2;90.0;
13030;PMS7003;6582;54.644;9.760;2022-11-14T12:35:15;96.4;90.7;
13030;PMS7003;6582;54.644;9.760;2022-11-14T12:40:05;95.2;88.9;
13030;PMS7003;6582;54.644;9.760;2022-11-14T13:05:11;97.2;91.8;
13030;PMS7003;6582;54.644;9.760;2022-11-14T13:25:13;97.6;88.6;
13030;PMS7003;6582;54.644;9.760;2022-11-14T13:30:03;95.9;88.3;
13030;PMS7003;6582;54.644;9.760;2022-11-14T13:35:03;95.5;88.4;
13030;PMS7003;6582;54.644;9.760;2022-11-14T13:55:02;95.0;89.8;
13030;PMS7003;6582;54.644;9.760;2022-11-14T14:00:15;94.5;88.4;
13030;PMS7003;6582;54.644;9.760;2022-11-14T14:05:12;95.0;87.9;
13030;PMS7003;6582;54.644;9.760;2022-11-14T14:10:21;94.8;86.5;
13030;PMS7003;6582;54.644;9.760;2022-11-14T14:45:02;94.2;85.4;
13030;PMS7003;6582;54.644;9.760;2022-11-14T14:50:02;93.1;82.8;
13030;PMS7003;6582;54.644;9.760;2022-11-14T14:55:22;97.2;86.1;
13030;PMS7003;6582;54.644;9.760;2022-11-14T15:15:02;94.6;84.6;
13030;PMS7003;6582;54.644;9.760;2022-11-14T15:20:02;94.5;85.2;
13030;PMS7003;6582;54.644;9.760;2022-11-14T15:25:04;94.0;84.9;
13030;PMS7003;6582;54.644;9.760;2022-11-14T15:30:03;94.8;86.4;
13030;PMS7003;6582;54.644;9.760;2022-11-14T15:35:22;94.6;86.1;
13030;PMS7003;6582;54.644;9.760;2022-11-14T15:55:02;98.2;88.4;
13030;PMS7003;6582;54.644;9.760;2022-11-14T16:00:01;95.1;84.0;
13030;PMS7003;6582;54.644;9.760;2022-11-14T16:05:02;96.3;86.1;
13030;PMS7003;6582;54.644;9.760;2022-11-14T16:10:02;95.8;85.7;
13030;PMS7003;6582;54.644;9.760;2022-11-14T16:15:01;95.4;85.3;
13030;PMS7003;6582;54.644;9.760;2022-11-14T16:20:03;94.8;84.9;
13030;PMS7003;6582;54.644;9.760;2022-11-14T16:25:01;94.9;85.8;
13030;PMS7003;6582;54.644;9.760;2022-11-14T16:30:03;94.6;85.5;
13030;PMS7003;6582;54.644;9.760;2022-11-14T16:35:03;96.1;87.7;
13030;PMS7003;6582;54.644;9.760;2022-11-14T16:40:01;96.8;89.3;
13030;PMS7003;6582;54.644;9.760;2022-11-14T16:45:02;97.3;89.8;
13030;PMS7003;6582;54.644;9.760;2022-11-14T16:50:02;104.0;97.7;
13030;PMS7003;6582;54.644;9.760;2022-11-14T16:55:01;103.7;97.0;
13030;PMS7003;6582;54.644;9.760;2022-11-14T17:00:03;102.8;95.8;
13030;PMS7003;6582;54.644;9.760;2022-11-14T17:10:02;102.4;94.4;
13030;PMS7003;6582;54.644;9.760;2022-11-14T17:15:03;96.0;86.5;
13030;PMS7003;6582;54.644;9.760;2022-11-14T17:20:02;96.7;87.4;
13030;PMS7003;6582;54.644;9.760;2022-11-14T17:25:07;97.0;86.8;
13030;PMS7003;6582;54.644;9.760;2022-11-14T17:30:01;97.2;87.6;
13030;PMS7003;6582;54.644;9.760;2022-11-14T17:35:01;97.0;87.6;
13030;PMS7003;6582;54.644;9.760;2022-11-14T17:40:10;98.1;89.6;
13030;PMS7003;6582;54.644;9.760;2022-11-14T17:45:01;98.3;90.9;
13030;PMS7003;6582;54.644;9.760;2022-11-14T17:50:07;98.5;92.4;
13030;PMS7003;6582;54.644;9.760;2022-11-14T17:55:01;98.0;92.2;
13030;PMS7003;6582;54.644;9.760;2022-11-14T18:00:02;98.9;93.9;
13030;PMS7003;6582;54.644;9.760;2022-11-14T18:05:01;98.6;93.0;
13030;PMS7003;6582;54.644;9.760;2022-11-14T18:10:01;98.2;92.3;
13030;PMS7003;6582;54.644;9.760;2022-11-14T18:15:02;97.6;91.3;
13030;PMS7003;6582;54.644;9.760;2022-11-14T18:20:01;98.4;92.6;
13030;PMS7003;6582;54.644;9.760;2022-11-14T18:25:13;99.1;93.4;
13030;PMS7003;6582;54.644;9.760;2022-11-14T18:30:16;100.0;94.7;
13030;PMS7003;6582;54.644;9.760;2022-11-14T18:35:01;100.6;95.3;
13030;PMS7003;6582;54.644;9.760;2022-11-14T18:40:01;101.5;96.4;
13030;PMS7003;6582;54.644;9.760;2022-11-14T18:45:12;101.7;96.3;
13030;PMS7003;6582;54.644;9.760;2022-11-14T18:50:02;101.5;96.5;
13030;PMS7003;6582;54.644;9.760;2022-11-14T18:55:02;102.3;97.4;
13030;PMS7003;6582;54.644;9.760;2022-11-14T19:00:07;103.8;99.4;
13030;PMS7003;6582;54.644;9.760;2022-11-14T19:05:02;105.0;100.8;
13030;PMS7003;6582;54.644;9.760;2022-11-14T19:10:01;104.9;101.1;
13030;PMS7003;6582;54.644;9.760;2022-11-14T19:15:01;104.8;101.1;
13030;PMS7003;6582;54.644;9.760;2022-11-14T19:20:01;103.5;100.2;
13030;PMS7003;6582;54.644;9.760;2022-11-14T19:25:01;102.1;98.6;
13030;PMS7003;6582;54.644;9.760;2022-11-14T19:30:01;108.0;104.7;
13030;PMS7003;6582;54.644;9.760;2022-11-14T19:40:02;107.8;103.6;
13030;PMS7003;6582;54.644;9.760;2022-11-14T19:45:01;108.0;103.5;
13030;PMS7003;6582;54.644;9.760;2022-11-14T19:50:01;107.7;103.0;
13030;PMS7003;6582;54.644;9.760;2022-11-14T19:55:02;100.7;95.8;
13030;PMS7003;6582;54.644;9.760;2022-11-14T20:00:01;102.6;98.2;
13030;PMS7003;6582;54.644;9.760;2022-11-14T20:05:07;102.8;98.2;
13030;PMS7003;6582;54.644;9.760;2022-11-14T20:10:03;104.1;99.6;
13030;PMS7003;6582;54.644;9.760;2022-11-14T20:15:06;104.0;99.2;
13030;PMS7003;6582;54.644;9.760;2022-11-14T20:25:07;103.6;99.0;
13030;PMS7003;6582;54.644;9.760;2022-11-14T20:30:01;104.3;99.6;
13030;PMS7003;6582;54.644;9.760;2022-11-14T20:35:02;102.0;97.2;
13030;PMS7003;6582;54.644;9.760;2022-11-14T20:40:02;103.0;98.5;
13030;PMS7003;6582;54.644;9.760;2022-11-14T20:45:06;103.2;98.8;
13030;PMS7003;6582;54.644;9.760;2022-11-14T20:50:01;103.9;98.2;
13030;PMS7003;6582;54.644;9.760;2022-11-14T20:55:01;103.2;97.8;
13030;PMS7003;6582;54.644;9.760;2022-11-14T21:00:06;104.2;99.0;
13030;PMS7003;6582;54.644;9.760;2022-11-14T21:05:02;102.9;98.1;
13030;PMS7003;6582;54.644;9.760;2022-11-14T21:10:01;102.8;97.8;
13030;PMS7003;6582;54.644;9.760;2022-11-14T21:15:01;100.7;96.9;
13030;PMS7003;6582;54.644;9.760;2022-11-14T21:25:02;101.1;96.8;
13030;PMS7003;6582;54.644;9.760;2022-11-14T21:30:01;102.4;98.0;
13030;PMS7003;6582;54.644;9.760;2022-11-14T21:35:10;103.0;98.8;
13030;PMS7003;6582;54.644;9.760;2022-11-14T21:40:01;106.8;102.3;
13030;PMS7003;6582;54.644;9.760;2022-11-14T21:45:01;108.2;103.5;
13030;PMS7003;6582;54.644;9.760;2022-11-14T21:50:02;111.2;107.4;
13030;PMS7003;6582;54.644;9.760;2022-11-14T21:55:01;115.4;112.0;
13030;PMS7003;6582;54.644;9.760;2022-11-14T22:00:06;114.4;111.0;
13030;PMS7003;6582;54.644;9.760;2022-11-14T22:05:01;110.3;107.3;
13030;PMS7003;6582;54.644;9.760;2022-11-14T22:10:01;117.6;114.8;
13030;PMS7003;6582;54.644;9.760;2022-11-14T22:15:03;114.0;110.2;
13030;PMS7003;6582;54.644;9.760;2022-11-14T22:20:06;109.2;104.3;
13030;PMS7003;6582;54.644;9.760;2022-11-14T22:25:01;110.2;105.3;
13030;PMS7003;6582;54.644;9.760;2022-11-14T22:30:02;112.1;107.1;
13030;PMS7003;6582;54.644;9.760;2022-11-14T22:35:02;104.8;100.1;
13030;PMS7003;6582;54.644;9.760;2022-11-14T22:40:01;110.2;106.0;
13030;PMS7003;6582;54.644;9.760;2022-11-14T22:45:01;114.1;110.2;
13030;PMS7003;6582;54.644;9.760;2022-11-14T22:50:11;118.0;114.4;
13030;PMS7003;6582;54.644;9.760;2022-11-14T22:55:06;124.7;121.3;
13030;PMS7003;6582;54.644;9.760;2022-11-14T23:00:02;123.1;119.0;
13030;PMS7003;6582;54.644;9.760;2022-11-14T23:05:06;118.9;114.9;
13030;PMS7003;6582;54.644;9.760;2022-11-14T23:10:01;114.5;110.6;
13030;PMS7003;6582;54.644;9.760;2022-11-14T23:15:02;110.8;106.8;
13030;PMS7003;6582;54.644;9.760;2022-11-14T23:20:01;102.9;98.6;
13030;PMS7003;6582;54.644;9.760;2022-11-14T23:25:02;106.3;103.0;
13030;PMS7003;6582;54.644;9.760;2022-11-14T23:30:06;109.3;105.6;
13030;PMS7003;6582;54.644;9.760;2022-11-14T23:35:06;115.5;111.8;
13030;PMS7003;6582;54.644;9.760;2022-11-14T23:40:01;114.0;109.3;
13030;PMS7003;6582;54.644;9.760;2022-11-14T23:45:01;119.4;115.7;
13030;PMS7003;6582;54.644;9.760;2022-11-14T23:50:01;127.6;123.5;
13030;PMS7003;6582;54.644;9.760;2022-11-14T23:55:02;134.2;130.5;
